Latest Weather Observations for Gabo Island

IDN60801

Issued at 9:05 pm EDT Friday 31 October 2014 (issued every 30 minutes, with the page automatically refreshed every 10 minutes)

About weather observations | Map of weather stations | Latest weather observations for NSW | Other Formats
Station Details ID: 084016 Name: GABO ISLAND LIGHTHOUSE Lat: -37.57 Lon: 149.92 Height: 15.2 m
Data from the previous 72 hours. | See also: Recent months at Gabo Island
Date/Time
EDT
Temp
°C
App
Temp
°C
Dew
Point
Rel
Hum
%
Delta-T
°C
Wind Press
QNH
hPa
Press
MSL
hPa
Rain
since 9 am
mm
Dir
 
Spd
km/h
Gust
km/h
Spd
kts
Gust
kts
31/09:00pm 18.0 13.5 16.5 91 0.9 NNE 35 39 19 21 1003.5 1003.5 0.0
31/08:30pm 17.7 14.7 16.7 94 0.6 NE 28 35 15 19 1003.8 - 0.0
31/08:00pm 17.2 13.3 16.4 95 0.5 NE 32 33 17 18 1004.2 - 0.0
31/07:30pm 17.3 14.1 16.3 94 0.6 NE 28 32 15 17 1004.4 - 0.0
31/07:00pm 17.7 14.5 16.4 92 0.8 NE 28 30 15 16 1004.4 - 0.0
31/06:30pm 17.7 14.8 16.2 91 0.9 ENE 26 28 14 15 1004.6 - 0.0
31/06:00pm 18.1 14.8 16.1 88 1.2 ENE 28 32 15 17 1004.7 1004.8 0.0
31/05:30pm 17.9 15.0 16.2 90 1.0 ENE 26 30 14 16 1005.0 - 0.0
31/05:00pm 18.6 14.4 16.3 86 1.4 NE 33 39 18 21 1004.9 - 0.0
31/04:30pm 18.9 13.9 16.2 84 1.6 NE 37 43 20 23 1005.1 - 0.0
31/04:00pm 18.9 14.3 16.2 84 1.6 NE 35 39 19 21 1005.5 - 0.0
31/03:30pm 19.0 14.7 16.0 83 1.8 NE 33 37 18 20 1005.9 - 0.0
31/03:00pm 18.8 14.1 15.8 83 1.8 NE 35 39 19 21 1006.4 1006.4 0.0
31/02:30pm 19.3 14.5 15.6 79 2.2 NE 35 41 19 22 1006.7 - 0.0
31/02:00pm 19.9 15.1 15.5 76 2.6 NE 35 41 19 22 1007.1 - 0.0
31/01:30pm 19.8 14.9 15.4 76 2.6 NE 35 41 19 22 1007.3 - 0.0
31/01:00pm 19.5 13.4 15.1 76 2.6 NE 41 46 22 25 1007.4 - 0.0
31/12:30pm 19.8 13.5 14.5 71 3.1 NNE 41 46 22 25 1008.1 - 0.0
31/12:00pm 20.2 14.7 14.7 70 3.2 NNE 37 43 20 23 1008.5 1008.5 0.0
31/11:30am 19.9 13.0 14.4 70 3.2 NNE 44 50 24 27 1009.0 - 0.0
31/11:00am 19.9 13.5 14.2 69 3.3 NNE 41 48 22 26 1009.5 - 0.0
31/10:30am 20.1 14.8 14.2 69 3.4 NNE 35 41 19 22 1010.0 - 0.0
31/10:00am 19.5 14.0 13.7 69 3.3 NNE 35 41 19 22 1010.4 - 0.0
31/09:30am 19.0 13.9 13.8 72 3.0 NNE 33 41 18 22 1010.8 - 0.0
31/09:00am 18.4 12.5 13.5 73 2.8 NNE 37 46 20 25 1011.0 1011.1 0.0
31/08:30am 18.0 12.8 13.4 74 2.6 NNE 33 41 18 22 1011.3 - 0.0
31/08:00am 17.1 13.3 13.6 80 2.0 NNE 26 39 14 21 1011.5 - 0.0
31/07:30am 15.8 13.2 13.7 87 1.2 NNE 20 24 11 13 1011.6 - 0.0
31/07:00am 14.3 11.9 12.7 90 0.9 NNE 17 20 9 11 1011.9 - 0.0
31/06:30am 13.5 11.7 12.0 91 0.8 N 13 17 7 9 1012.1 - 0.0
31/06:00am 13.7 11.5 12.0 89 0.9 NNE 15 20 8 11 1011.9 1011.9 0.0
31/05:30am 13.6 11.7 11.7 88 1.0 NNE 13 17 7 9 1012.0 - 0.0
31/05:00am 12.7 10.8 10.6 87 1.1 NNE 11 13 6 7 1012.3 - 0.0
31/04:30am 13.0 11.8 10.3 84 1.4 N 7 9 4 5 1012.4 - 0.0
31/04:00am 14.5 13.2 11.1 80 1.8 NNE 9 11 5 6 1012.9 - 0.0
31/03:30am 14.6 12.8 10.8 78 2.0 NNE 11 13 6 7 1013.1 - 0.0
31/03:00am 14.3 12.4 10.5 78 2.0 NNE 11 15 6 8 1013.3 1013.3 0.0
31/02:30am 13.9 13.0 11.3 84 1.4 N 7 11 4 6 1013.5 - 0.0
31/02:00am 14.2 13.3 11.4 83 1.5 N 7 9 4 5 1013.7 - 0.0
31/01:30am 13.8 12.8 11.0 83 1.5 N 7 9 4 5 1014.0 - 0.0
31/01:00am 14.2 13.4 11.2 82 1.6 NW 6 7 3 4 1014.3 - 0.0
31/12:30am 14.3 13.6 11.5 83 1.5 NNW 6 7 3 4 1014.5 - 0.0
31/12:00am 14.6 13.6 11.0 79 1.9 W 7 9 4 5 1014.6 1014.6 0.0
 
Date/Time
EDT
Temp
°C
App
Temp
°C
Dew
Point
Rel
Hum
%
Delta-T
°C
Wind Press
QNH
hPa
Press
MSL
hPa
Rain
since 9 am
mm
Dir
 
Spd
km/h
Gust
km/h
Spd
kts
Gust
kts
30/11:30pm 14.8 13.1 11.2 79 1.9 WSW 11 13 6 7 1014.9 - 0.0
30/11:00pm 14.7 13.0 11.1 79 1.9 WSW 11 15 6 8 1014.8 - 0.0
30/10:30pm 14.6 12.5 11.0 79 1.9 WSW 13 17 7 9 1015.1 - 0.0
30/10:00pm 15.0 11.7 11.0 77 2.1 SW 19 24 10 13 1015.3 - 0.0
30/09:30pm 15.4 11.8 10.7 73 2.5 SW 20 24 11 13 1015.2 - 0.0
30/09:00pm 15.4 11.5 10.7 73 2.5 SW 22 26 12 14 1014.9 1014.8 0.0
30/08:30pm 15.4 11.6 11.3 76 2.2 SW 22 24 12 13 1014.7 - 0.0
30/08:00pm 15.6 11.5 11.5 76 2.2 SW 24 28 13 15 1014.6 - 0.0
30/07:30pm 15.7 10.8 11.4 75 2.3 SW 28 32 15 17 1014.3 - 0.0
30/07:00pm 16.1 11.7 11.7 75 2.4 SW 26 30 14 16 1014.0 - 0.0
30/06:30pm 16.3 12.9 10.4 68 3.1 SW 19 22 10 12 1013.6 - 0.0
30/06:00pm 16.4 12.0 10.4 67 3.2 SSW 24 28 13 15 1013.2 1013.2 0.0
30/05:30pm 16.9 13.5 10.7 67 3.3 SSW 19 22 10 12 1013.1 - 0.0
30/05:00pm 17.7 15.4 10.6 63 3.8 SSW 13 19 7 10 1012.8 - 0.0
30/04:30pm 17.8 14.6 11.8 68 3.3 SSW 20 26 11 14 1012.5 - 0.0
30/04:00pm 17.5 13.4 11.4 67 3.3 SSW 24 28 13 15 1012.3 - 0.0
30/03:30pm 18.3 14.6 12.6 69 3.2 S 24 26 13 14 1012.7 - 0.0
30/03:00pm 18.2 15.3 12.4 69 3.2 S 19 20 10 11 1012.7 1012.7 0.0
30/02:30pm 18.6 15.5 12.1 66 3.6 S 20 24 11 13 1012.9 - 0.0
30/02:00pm 18.5 15.3 11.8 65 3.7 S 20 24 11 13 1012.8 - 0.0
30/01:30pm 18.5 15.5 12.0 66 3.6 S 19 20 10 11 1012.8 - 0.0
30/01:00pm 18.2 15.1 12.2 68 3.3 S 20 24 11 13 1013.1 - 0.0
30/12:30pm 18.6 15.8 12.5 67 3.4 S 19 22 10 12 1013.4 - 0.0
30/12:00pm 17.8 15.3 10.9 64 3.7 S 15 17 8 9 1013.7 1013.7 0.0
30/11:30am 17.5 16.3 11.6 68 3.2 S 9 11 5 6 1013.8 - 0.0
30/11:00am 17.3 15.3 11.4 68 3.2 SSW 13 19 7 10 1014.2 - 0.0
30/10:30am 16.6 14.3 10.6 67 3.2 SSW 13 15 7 8 1014.1 - 0.0
30/10:00am 16.4 14.1 10.4 67 3.2 SW 13 15 7 8 1014.3 - 0.0
30/09:30am 15.9 13.9 10.2 69 3.0 WSW 11 13 6 7 1014.0 - 0.0
30/09:00am 15.4 13.7 11.3 76 2.2 W 11 15 6 8 1014.2 1014.2 0.0
30/08:30am 14.4 12.3 11.0 80 1.8 W 13 15 7 8 1014.6 - 0.0
30/08:00am 13.9 11.6 11.7 86 1.2 WNW 15 17 8 9 1014.5 - 0.0
30/07:30am 13.0 11.4 11.7 92 0.7 WNW 11 13 6 7 1014.5 - 0.0
30/07:00am 13.3 11.3 11.4 88 1.0 W 13 15 7 8 1014.4 - 0.0
30/06:30am 13.5 12.2 11.4 87 1.1 W 9 15 5 8 1014.1 - 0.0
30/06:00am 12.6 11.4 10.3 86 1.2 N 7 9 4 5 1013.8 1013.9 0.0
30/05:30am 12.6 11.3 10.1 85 1.3 N 7 9 4 5 1013.8 - 0.0
30/05:00am 13.5 11.6 10.4 81 1.6 NNE 11 13 6 7 1013.8 - 0.0
30/04:30am 12.8 11.1 9.9 82 1.5 N 9 11 5 6 1013.7 - 0.0
30/04:00am 12.8 10.7 9.9 82 1.5 N 11 13 6 7 1014.0 - 0.0
30/03:30am 13.6 11.9 9.9 78 1.9 N 9 9 5 5 1014.2 - 0.0
30/03:00am 13.6 11.9 9.9 78 1.9 N 9 9 5 5 1014.5 1014.5 0.0
30/02:30am 13.9 12.5 9.6 75 2.2 WNW 7 9 4 5 1014.9 - 0.0
30/02:00am 13.8 12.6 10.3 79 1.8 WNW 7 9 4 5 1015.2 - 0.0
30/01:30am 14.0 12.5 10.4 79 1.9 WNW 9 11 5 6 1015.8 - 0.0
30/01:00am 14.0 12.5 10.4 79 1.9 WNW 9 9 5 5 1015.9 - 0.0
30/12:30am 14.1 13.0 10.7 80 1.8 W 7 9 4 5 1016.3 - 0.0
30/12:00am 14.3 12.9 10.9 80 1.8 W 9 11 5 6 1016.5 1016.5 0.0
 
Date/Time
EDT
Temp
°C
App
Temp
°C
Dew
Point
Rel
Hum
%
Delta-T
°C
Wind Press
QNH
hPa
Press
MSL
hPa
Rain
since 9 am
mm
Dir
 
Spd
km/h
Gust
km/h
Spd
kts
Gust
kts
29/11:30pm 14.2 13.1 10.8 80 1.8 W 7 9 4 5 1016.7 - 0.0
29/11:00pm 14.2 13.0 10.4 78 2.0 W 7 7 4 4 1016.8 - 0.0
29/10:30pm 14.1 12.9 10.3 78 2.0 W 7 9 4 5 1017.0 - 0.0
29/10:00pm 14.1 12.5 10.3 78 2.0 WNW 9 9 5 5 1017.2 - 0.0
29/09:30pm 14.1 12.7 9.6 74 2.3 WSW 7 9 4 5 1017.3 - 0.0
29/09:00pm 13.8 12.3 9.1 73 2.4 WSW 7 7 4 4 1016.9 1016.9 0.0
29/08:30pm 13.9 12.3 8.7 71 2.6 SSW 7 9 4 5 1016.6 - 0.0
29/08:00pm 14.5 12.6 9.0 69 2.8 SW 9 11 5 6 1016.4 - 0.0
29/07:30pm 14.6 13.0 8.9 68 2.9 SSW 7 9 4 5 1016.1 - 0.0
29/07:00pm 15.3 12.9 8.6 64 3.4 SSW 11 13 6 7 1015.8 - 0.0
29/06:30pm 15.7 13.2 8.2 61 3.8 S 11 13 6 7 1015.5 - 0.0
29/06:00pm 16.0 12.8 8.3 60 3.9 SSW 15 19 8 10 1015.3 1015.3 0.0
29/05:30pm 16.3 12.4 8.7 60 3.9 S 19 20 10 11 1015.3 - 0.0
29/05:00pm 16.5 12.5 8.9 61 3.9 SSW 20 24 11 13 1015.2 - 0.0
29/04:30pm 15.9 10.3 8.6 62 3.7 SSW 28 35 15 19 1015.0 - 0.0
29/04:00pm 16.2 9.5 9.7 65 3.4 SSW 35 43 19 23 1014.8 - 0.0
29/03:30pm 16.1 8.5 8.9 62 3.7 SSW 39 44 21 24 1014.9 - 0.0
29/03:00pm 15.8 7.6 8.3 61 3.8 SSW 41 46 22 25 1015.1 1015.1 0.0
29/02:30pm 15.6 7.6 9.0 65 3.4 SSW 41 50 22 27 1015.3 - 0.0
29/02:00pm 15.3 6.6 8.4 63 3.5 SSW 44 52 24 28 1015.7 - 0.0
29/01:30pm 15.1 5.9 7.9 62 3.6 SW 46 54 25 29 1016.0 - 0.0
29/01:00pm 15.4 6.2 7.8 60 3.8 SW 46 52 25 28 1016.3 - 0.0
29/12:30pm 15.4 5.9 6.8 56 4.2 SW 46 54 25 29 1016.6 - 0.0
29/12:00pm 15.3 6.1 7.9 61 3.7 SW 46 56 25 30 1016.8 1016.9 0.0
29/11:30am 15.6 6.9 8.5 62 3.6 SW 44 56 24 30 1017.1 - 0.0
29/11:00am 16.1 7.5 6.7 53 4.6 SW 41 52 22 28 1017.3 - 0.0
29/10:30am 15.7 7.1 6.7 55 4.4 SW 41 50 22 27 1017.4 - 0.0
29/10:00am 15.9 7.6 5.9 51 4.8 WSW 39 48 21 26 1017.4 - 0.0
29/09:30am 15.6 7.7 6.3 54 4.5 WSW 37 48 20 26 1017.1 - 0.0
29/09:00am 15.0 7.2 6.8 58 4.0 W 37 48 20 26 1017.0 1017.0 0.0
29/08:30am 14.5 6.2 5.9 56 4.1 WSW 39 50 21 27 1017.0 - 0.0
29/08:00am 13.9 5.8 7.1 63 3.3 W 39 50 21 27 1016.8 - 0.0
29/07:30am 13.2 5.2 7.5 68 2.8 W 39 46 21 25 1016.2 - 0.0
29/07:00am 12.9 6.4 8.0 72 2.4 W 32 39 17 21 1015.9 - 0.0
29/06:30am 13.2 5.8 8.2 71 2.5 WSW 37 52 20 28 1015.6 - 0.0
29/06:11am 12.8 5.7 7.9 72 2.4 W 35 54 19 29 1015.4 - 0.0
29/06:00am 13.3 4.5 8.0 70 2.6 WSW 44 57 24 31 1015.2 1015.2 0.0
29/05:30am 13.2 3.6 7.9 70 2.6 WSW 48 61 26 33 1014.7 - 0.0
29/05:00am 13.4 4.8 8.2 71 2.6 WSW 43 52 23 28 1014.4 - 0.0
29/04:30am 13.4 4.3 7.0 65 3.1 WSW 44 56 24 30 1013.9 - 0.0
29/04:00am 13.5 4.2 7.4 66 3.0 WSW 46 63 25 34 1013.6 - 0.0
29/03:55am 13.4 4.3 7.0 65 3.1 WSW 44 63 24 34 1013.5 - 0.0
29/03:30am 13.6 4.5 7.0 64 3.2 WSW 44 59 24 32 1013.8 - 0.0
29/03:00am 13.6 4.7 6.8 63 3.3 WSW 43 56 23 30 1013.8 1013.8 0.0
29/02:30am 13.8 3.5 6.3 60 3.6 WSW 50 65 27 35 1013.6 - 0.0
29/02:04am 13.8 4.1 6.0 59 3.7 WSW 46 65 25 35 1013.6 - 0.0
29/02:00am 13.6 4.0 7.9 68 2.8 WSW 48 65 26 35 1013.6 - 0.0
29/01:38am 13.7 3.5 6.9 63 3.3 WSW 50 69 27 37 1013.5 - 0.0
29/01:30am 14.0 3.3 6.3 60 3.7 WSW 52 65 28 35 1013.5 - 0.0
29/01:00am 14.2 3.1 6.3 59 3.8 WSW 54 69 29 37 1013.7 - 0.0
29/12:30am 14.2 2.6 6.5 60 3.7 WSW 57 74 31 40 1013.5 - 0.0
29/12:16am 14.3 2.3 6.7 60 3.7 WSW 59 78 32 42 1013.5 - 0.0
29/12:00am 14.5 4.0 7.4 62 3.5 WSW 52 67 28 36 1013.4 1013.3 0.0
 
Date/Time
EDT
Temp
°C
App
Temp
°C
Dew
Point
Rel
Hum
%
Delta-T
°C
Wind Press
QNH
hPa
Press
MSL
hPa
Rain
since 9 am
mm
Dir
 
Spd
km/h
Gust
km/h
Spd
kts
Gust
kts
28/11:39pm 14.5 4.5 7.9 64 3.3 WSW 50 69 27 37 1013.1 - 0.0
28/11:30pm 14.5 3.8 7.9 64 3.3 WSW 54 69 29 37 1013.1 - 0.0
28/11:00pm 14.4 4.9 8.2 66 3.1 WSW 48 61 26 33 1012.9 - 0.0
28/10:36pm 14.7 4.1 8.6 67 3.1 WSW 54 72 29 39 1012.6 - 0.0
28/10:30pm 14.8 3.7 8.7 67 3.1 WSW 57 72 31 39 1012.3 - 0.0
28/10:11pm 14.6 5.2 8.9 68 2.9 WSW 48 69 26 37 1012.1 - 0.0
28/10:00pm 14.6 5.2 8.9 68 2.9 WSW 48 63 26 34 1012.1 - 0.0
28/09:30pm 14.5 6.0 9.2 70 2.7 WSW 44 63 24 34 1012.1 - 0.0

Other Formats:

Comma delimited format used in spreadsheet applications
http://www.bom.gov.au/fwo/IDN60801/IDN60801.94933.axf

JavaScript Object Notation format (JSON) in row-major order
http://www.bom.gov.au/fwo/IDN60801/IDN60801.94933.json